Time;durP1;ratioP1;P1;durP2;ratioP2;P2;SDS_P1;SDS_P2;PMS_P1;PMS_P2;Temp;Humidity;BMP_temperature;BMP_pressure;BME280_temperature;BME280_humidity;BME280_pressure;Samples;Min_cycle;Max_cycle;Signal;HPM_P1;HPM_P2
2022/01/07 00:00:16;;;;;;;3.13;2.93;;;;;;;;;;4922794;29;20944;-69
2022/01/07 00:02:42;;;;;;;6.97;3.20;;;;;;;;;;4930214;29;20473;-70
2022/01/07 00:05:08;;;;;;;4.83;3.30;;;;;;;;;;4926976;29;20539;-71
2022/01/07 00:07:34;;;;;;;6.00;2.53;;;;;;;;;;4911790;29;20534;-66
2022/01/07 00:10:00;;;;;;;4.00;2.70;;;;;;;;;;4928118;29;20532;-67
2022/01/07 00:12:26;;;;;;;3.50;3.30;;;;;;;;;;4924444;29;20419;-67
2022/01/07 00:14:52;;;;;;;6.50;2.40;;;;;;;;;;4926850;29;20428;-69
2022/01/07 00:17:18;;;;;;;4.30;2.13;;;;;;;;;;4914132;29;21279;-67
2022/01/07 00:19:44;;;;;;;2.27;2.07;;;;;;;;;;4923960;29;20522;-67
2022/01/07 00:22:10;;;;;;;3.90;2.77;;;;;;;;;;4907969;29;21701;-68
2022/01/07 00:24:36;;;;;;;3.70;3.43;;;;;;;;;;4928889;29;20530;-69
2022/01/07 00:27:02;;;;;;;3.50;3.30;;;;;;;;;;4927058;29;20440;-68
2022/01/07 00:29:28;;;;;;;3.30;3.07;;;;;;;;;;4923731;29;20968;-69
2022/01/07 00:31:54;;;;;;;3.40;3.10;;;;;;;;;;4928787;29;20467;-67
2022/01/07 00:34:20;;;;;;;4.73;2.87;;;;;;;;;;4929017;29;20487;-68
2022/01/07 00:36:46;;;;;;;2.80;2.70;;;;;;;;;;4926095;29;20448;-66
2022/01/07 00:39:12;;;;;;;6.43;3.30;;;;;;;;;;4923879;29;20554;-67
2022/01/07 00:41:38;;;;;;;5.40;4.00;;;;;;;;;;4928342;29;20458;-68
2022/01/07 00:44:04;;;;;;;3.67;3.47;;;;;;;;;;4930409;29;20462;-71
2022/01/07 00:46:30;;;;;;;5.13;4.53;;;;;;;;;;4930599;29;20925;-67
2022/01/07 00:48:56;;;;;;;5.33;4.70;;;;;;;;;;4927842;29;20609;-67
2022/01/07 00:51:22;;;;;;;10.70;5.03;;;;;;;;;;4929304;29;20446;-67
2022/01/07 00:53:48;;;;;;;4.13;3.50;;;;;;;;;;4930618;29;20511;-66
2022/01/07 00:56:14;;;;;;;3.07;2.87;;;;;;;;;;4929327;29;20522;-67
2022/01/07 00:58:40;;;;;;;3.07;2.87;;;;;;;;;;4929822;29;20578;-68
2022/01/07 01:01:06;;;;;;;4.03;2.70;;;;;;;;;;4931971;29;20439;-68
2022/01/07 01:03:32;;;;;;;4.47;3.23;;;;;;;;;;4928596;29;20439;-67
2022/01/07 01:05:58;;;;;;;3.87;3.50;;;;;;;;;;4929860;29;20927;-67
2022/01/07 01:08:25;;;;;;;2.83;2.70;;;;;;;;;;4927220;29;20799;-67
2022/01/07 01:10:51;;;;;;;2.83;2.60;;;;;;;;;;4932082;29;20455;-68
2022/01/07 01:13:17;;;;;;;4.77;3.43;;;;;;;;;;4916847;29;20463;-71
2022/01/07 01:15:43;;;;;;;4.37;2.97;;;;;;;;;;4935629;29;20467;-69
2022/01/07 01:18:09;;;;;;;3.10;2.90;;;;;;;;;;4931814;29;20478;-69
2022/01/07 01:20:35;;;;;;;3.00;2.80;;;;;;;;;;4933026;29;20522;-72
2022/01/07 01:23:02;;;;;;;3.23;2.93;;;;;;;;;;4930724;29;20463;-70
2022/01/07 01:25:28;;;;;;;5.80;3.30;;;;;;;;;;4916244;29;20483;-70
2022/01/07 01:27:54;;;;;;;4.83;3.50;;;;;;;;;;4935411;29;20447;-69
2022/01/07 01:30:20;;;;;;;4.33;3.13;;;;;;;;;;4915612;29;20432;-69
2022/01/07 01:32:47;;;;;;;4.23;3.10;;;;;;;;;;4917735;29;20523;-67
2022/01/07 01:35:13;;;;;;;5.77;3.13;;;;;;;;;;4932510;29;20498;-68
2022/01/07 01:37:39;;;;;;;2.57;2.37;;;;;;;;;;4934189;29;20964;-69
2022/01/07 01:40:06;;;;;;;3.17;2.10;;;;;;;;;;4934085;29;20493;-66
2022/01/07 01:42:32;;;;;;;2.50;2.40;;;;;;;;;;4933711;29;20453;-67
2022/01/07 01:44:58;;;;;;;2.10;2.00;;;;;;;;;;4933996;29;20447;-67
2022/01/07 01:47:24;;;;;;;2.43;2.20;;;;;;;;;;4934516;29;20828;-67
2022/01/07 01:49:50;;;;;;;1.70;1.60;;;;;;;;;;4933286;29;20434;-68
2022/01/07 01:52:16;;;;;;;1.73;1.73;;;;;;;;;;4931261;29;20457;-68
2022/01/07 01:54:43;;;;;;;2.50;2.40;;;;;;;;;;4933035;29;20931;-67
2022/01/07 01:57:10;;;;;;;4.63;1.80;;;;;;;;;;4929998;29;20902;-68
2022/01/07 01:59:36;;;;;;;2.53;2.40;;;;;;;;;;4932410;29;20486;-68
2022/01/07 02:02:02;;;;;;;1.50;1.50;;;;;;;;;;4933494;29;20440;-67
2022/01/07 02:04:29;;;;;;;2.20;1.97;;;;;;;;;;4932744;29;20440;-71
2022/01/07 02:06:56;;;;;;;1.97;1.57;;;;;;;;;;4933628;29;20436;-70
2022/01/07 02:09:30;;;;;;;1.90;1.80;;;;;;;;;;4931082;29;20450;-67
2022/01/07 02:11:56;;;;;;;1.43;1.40;;;;;;;;;;4934910;29;20430;-71
2022/01/07 02:14:22;;;;;;;1.83;1.77;;;;;;;;;;4914267;29;20447;-70
2022/01/07 02:16:48;;;;;;;2.90;1.57;;;;;;;;;;4931767;29;20424;-66
2022/01/07 02:19:14;;;;;;;3.50;2.67;;;;;;;;;;4930549;29;21044;-68
2022/01/07 02:21:40;;;;;;;9.27;4.97;;;;;;;;;;4933957;29;20505;-68
2022/01/07 02:24:07;;;;;;;68.90;23.73;;;;;;;;;;4933830;29;20448;-67
2022/01/07 02:26:35;;;;;;;82.67;27.30;;;;;;;;;;4930488;29;20483;-67
2022/01/07 02:29:02;;;;;;;48.87;15.60;;;;;;;;;;4933153;29;20498;-67
2022/01/07 02:31:28;;;;;;;31.03;11.93;;;;;;;;;;4915811;29;20435;-67
2022/01/07 02:33:54;;;;;;;7.90;4.57;;;;;;;;;;4931541;29;20444;-70
2022/01/07 02:36:20;;;;;;;6.43;4.70;;;;;;;;;;4932557;29;20427;-67
2022/01/07 02:38:46;;;;;;;10.27;5.93;;;;;;;;;;4914297;29;20590;-71
2022/01/07 02:41:12;;;;;;;3.57;2.60;;;;;;;;;;4932921;29;20432;-73
2022/01/07 02:43:38;;;;;;;3.70;3.20;;;;;;;;;;4932437;29;20459;-68
2022/01/07 02:46:04;;;;;;;1.67;1.67;;;;;;;;;;4931273;29;20474;-67
2022/01/07 02:48:30;;;;;;;1.37;1.27;;;;;;;;;;4932579;29;20447;-66
2022/01/07 02:50:56;;;;;;;1.90;1.13;;;;;;;;;;4932156;29;20836;-70
2022/01/07 02:53:22;;;;;;;1.17;1.00;;;;;;;;;;4930572;29;20523;-70
2022/01/07 02:55:50;;;;;;;1.37;1.27;;;;;;;;;;4930249;29;20921;-68
2022/01/07 02:58:17;;;;;;;1.17;1.10;;;;;;;;;;4932012;29;20487;-68
2022/01/07 03:00:43;;;;;;;1.27;1.13;;;;;;;;;;4931076;29;20975;-68
2022/01/07 03:03:09;;;;;;;2.93;1.30;;;;;;;;;;4931069;29;20436;-67
2022/01/07 03:05:35;;;;;;;1.57;0.93;;;;;;;;;;4934154;29;20467;-66
2022/01/07 03:08:01;;;;;;;1.37;1.20;;;;;;;;;;4913998;29;20439;-66
2022/01/07 03:10:32;;;;;;;2.67;1.37;;;;;;;;;;4927219;29;21007;-66
2022/01/07 03:13:00;;;;;;;1.43;1.40;;;;;;;;;;4933285;29;20451;-69
2022/01/07 03:15:26;;;;;;;6.13;1.37;;;;;;;;;;4932572;29;20980;-71
2022/01/07 03:17:52;;;;;;;4.27;1.90;;;;;;;;;;4933510;29;20436;-67
2022/01/07 03:20:19;;;;;;;3.10;1.50;;;;;;;;;;4928755;29;20516;-71
2022/01/07 03:22:46;;;;;;;1.40;1.30;;;;;;;;;;4929989;29;20787;-69
2022/01/07 03:25:12;;;;;;;1.30;1.30;;;;;;;;;;4915102;29;20452;-67
2022/01/07 03:27:38;;;;;;;1.80;1.30;;;;;;;;;;4932155;29;20486;-71
2022/01/07 03:30:05;;;;;;;1.70;1.20;;;;;;;;;;4931001;29;20507;-68
2022/01/07 03:32:31;;;;;;;2.23;1.30;;;;;;;;;;4932122;29;20904;-68
2022/01/07 03:34:57;;;;;;;1.10;1.00;;;;;;;;;;4909957;29;20932;-66
2022/01/07 03:37:23;;;;;;;2.27;1.60;;;;;;;;;;4932091;29;20446;-67
2022/01/07 03:39:49;;;;;;;1.37;1.10;;;;;;;;;;4929771;29;20594;-68
2022/01/07 03:42:16;;;;;;;2.53;1.33;;;;;;;;;;4932049;29;20486;-68
2022/01/07 03:44:42;;;;;;;1.50;1.50;;;;;;;;;;4931650;29;21000;-67
2022/01/07 03:47:08;;;;;;;4.67;1.70;;;;;;;;;;4928060;29;20928;-65
2022/01/07 03:49:34;;;;;;;2.93;1.23;;;;;;;;;;4930329;29;20431;-70
2022/01/07 03:52:00;;;;;;;2.10;1.30;;;;;;;;;;4931145;29;20451;-67
2022/01/07 03:54:34;;;;;;;3.27;1.63;;;;;;;;;;5102715;27;20858;-72
2022/01/07 03:57:00;;;;;;;1.40;1.30;;;;;;;;;;5085086;28;20528;-70
2022/01/07 03:59:27;;;;;;;1.70;1.70;;;;;;;;;;5084751;28;20509;-67
2022/01/07 04:01:53;;;;;;;2.53;2.27;;;;;;;;;;5086457;28;20421;-70
2022/01/07 04:04:19;;;;;;;2.33;1.47;;;;;;;;;;5086146;28;20488;-70
2022/01/07 04:06:45;;;;;;;1.47;1.47;;;;;;;;;;5083489;28;20445;-70
2022/01/07 04:09:11;;;;;;;1.77;1.70;;;;;;;;;;5083430;28;20428;-72
2022/01/07 04:11:36;;;;;;;2.10;2.10;;;;;;;;;;5084804;28;20924;-69
2022/01/07 04:14:02;;;;;;;2.57;2.30;;;;;;;;;;5084935;28;20511;-72
2022/01/07 04:16:28;;;;;;;2.43;2.33;;;;;;;;;;5085651;28;20428;-71
2022/01/07 04:18:54;;;;;;;2.47;2.33;;;;;;;;;;5080969;28;20516;-69
2022/01/07 04:21:20;;;;;;;7.30;3.10;;;;;;;;;;5083196;28;20437;-75
2022/01/07 04:23:46;;;;;;;2.00;1.90;;;;;;;;;;5082671;28;20549;-69
2022/01/07 04:26:12;;;;;;;2.30;2.20;;;;;;;;;;5081688;28;20440;-71
2022/01/07 04:28:38;;;;;;;1.50;1.50;;;;;;;;;;5080559;28;20468;-67
2022/01/07 04:31:04;;;;;;;2.20;2.00;;;;;;;;;;5082656;28;20924;-74
2022/01/07 04:33:33;;;;;;;2.93;2.00;;;;;;;;;;5084412;28;20495;-69
2022/01/07 04:35:59;;;;;;;2.50;2.20;;;;;;;;;;5079826;28;20450;-67
2022/01/07 04:38:25;;;;;;;1.60;1.57;;;;;;;;;;5083365;28;20437;-68
2022/01/07 04:40:51;;;;;;;1.90;1.90;;;;;;;;;;5081637;28;20429;-71
2022/01/07 04:43:17;;;;;;;1.87;1.73;;;;;;;;;;5081728;28;20812;-70
2022/01/07 04:45:43;;;;;;;1.50;1.40;;;;;;;;;;5085697;28;20440;-71
2022/01/07 04:48:09;;;;;;;2.90;1.50;;;;;;;;;;5083455;28;20463;-70
2022/01/07 04:50:36;;;;;;;4.30;2.00;;;;;;;;;;5086042;28;20409;-70
2022/01/07 04:53:02;;;;;;;1.70;1.63;;;;;;;;;;5090195;28;20515;-69
2022/01/07 04:55:29;;;;;;;4.43;2.37;;;;;;;;;;5105551;28;20527;-67
2022/01/07 04:57:56;;;;;;;2.53;2.30;;;;;;;;;;5103476;28;20430;-67
2022/01/07 05:00:23;;;;;;;2.23;2.03;;;;;;;;;;5087248;28;20440;-68
2022/01/07 05:02:49;;;;;;;1.80;1.70;;;;;;;;;;5105658;28;20473;-69
2022/01/07 05:05:15;;;;;;;1.80;1.80;;;;;;;;;;5092476;28;20437;-68
2022/01/07 05:07:41;;;;;;;6.13;1.80;;;;;;;;;;5072396;28;20417;-70
2022/01/07 05:10:10;;;;;;;3.13;2.80;;;;;;;;;;5072847;28;20511;-72
2022/01/07 05:12:36;;;;;;;3.07;2.80;;;;;;;;;;5089594;28;20541;-69
2022/01/07 05:15:04;;;;;;;2.57;2.37;;;;;;;;;;5071714;28;20497;-68
2022/01/07 05:17:30;;;;;;;8.13;2.40;;;;;;;;;;5089494;28;20801;-67
2022/01/07 05:19:57;;;;;;;2.60;2.50;;;;;;;;;;5087517;28;20950;-67
2022/01/07 05:22:24;;;;;;;2.00;1.90;;;;;;;;;;5086695;28;20536;-70
2022/01/07 05:24:50;;;;;;;2.70;2.60;;;;;;;;;;5079229;28;20441;-70
2022/01/07 05:27:16;;;;;;;3.33;2.57;;;;;;;;;;5087213;28;20943;-70
2022/01/07 05:29:42;;;;;;;2.10;2.00;;;;;;;;;;5084661;28;20500;-68
2022/01/07 05:32:08;;;;;;;2.73;2.53;;;;;;;;;;5088927;28;20489;-72
2022/01/07 05:34:34;;;;;;;2.20;2.10;;;;;;;;;;5090863;28;20424;-68
2022/01/07 05:37:01;;;;;;;2.03;1.97;;;;;;;;;;5071415;28;20451;-66
2022/01/07 05:39:27;;;;;;;2.50;2.30;;;;;;;;;;5086833;28;20821;-70
2022/01/07 05:41:53;;;;;;;6.03;2.80;;;;;;;;;;5087461;28;20703;-72
2022/01/07 05:44:19;;;;;;;4.17;2.20;;;;;;;;;;5090878;28;20432;-74
2022/01/07 05:46:45;;;;;;;2.00;2.00;;;;;;;;;;5085959;28;20434;-68
2022/01/07 05:49:11;;;;;;;3.27;2.43;;;;;;;;;;5084058;28;20437;-66
2022/01/07 05:51:38;;;;;;;2.33;2.13;;;;;;;;;;5083179;28;20441;-69
2022/01/07 05:54:04;;;;;;;3.37;2.50;;;;;;;;;;5080163;28;20496;-73
2022/01/07 05:56:31;;;;;;;2.53;2.40;;;;;;;;;;5084115;28;20462;-69
2022/01/07 05:58:57;;;;;;;2.37;1.90;;;;;;;;;;5085298;28;20453;-67
2022/01/07 06:01:23;;;;;;;2.63;2.50;;;;;;;;;;5087954;28;20911;-68
2022/01/07 06:03:49;;;;;;;3.37;2.27;;;;;;;;;;5082407;28;20984;-71
2022/01/07 06:06:15;;;;;;;3.03;2.83;;;;;;;;;;5082277;28;20440;-71
2022/01/07 06:08:41;;;;;;;2.10;2.00;;;;;;;;;;5079519;28;20444;-69
2022/01/07 06:11:07;;;;;;;4.60;2.20;;;;;;;;;;5083812;28;20972;-70
2022/01/07 06:13:33;;;;;;;2.37;2.27;;;;;;;;;;5086297;28;20495;-68
2022/01/07 06:15:59;;;;;;;2.83;1.87;;;;;;;;;;5088281;28;20432;-70
2022/01/07 06:18:25;;;;;;;2.77;2.57;;;;;;;;;;5081772;28;20983;-68
2022/01/07 06:20:51;;;;;;;2.50;2.40;;;;;;;;;;5076553;28;20433;-71
2022/01/07 06:23:17;;;;;;;2.63;2.43;;;;;;;;;;5065791;28;20441;-69
2022/01/07 06:25:44;;;;;;;2.97;2.83;;;;;;;;;;5085212;28;20524;-72
2022/01/07 06:28:10;;;;;;;3.40;3.10;;;;;;;;;;5085212;28;20912;-67
2022/01/07 06:30:36;;;;;;;2.90;2.80;;;;;;;;;;5065451;28;20433;-67
2022/01/07 06:33:02;;;;;;;3.47;3.23;;;;;;;;;;5085703;28;20512;-68
2022/01/07 06:35:28;;;;;;;5.03;3.57;;;;;;;;;;5085706;28;20463;-67
2022/01/07 06:37:54;;;;;;;6.23;2.93;;;;;;;;;;5085453;28;20436;-68
2022/01/07 06:40:20;;;;;;;4.47;3.20;;;;;;;;;;5081296;28;20433;-68
2022/01/07 06:42:46;;;;;;;4.83;2.90;;;;;;;;;;5083602;28;20432;-68
2022/01/07 06:45:12;;;;;;;3.47;3.17;;;;;;;;;;5082523;28;20947;-68
2022/01/07 06:47:38;;;;;;;3.50;3.30;;;;;;;;;;5069391;28;20524;-67
2022/01/07 06:50:06;;;;;;;4.27;2.80;;;;;;;;;;5080224;28;20436;-68
2022/01/07 06:52:32;;;;;;;5.80;3.80;;;;;;;;;;5086999;28;20480;-70
2022/01/07 06:54:58;;;;;;;3.83;3.47;;;;;;;;;;5080972;28;20441;-70
2022/01/07 06:57:24;;;;;;;5.53;3.47;;;;;;;;;;5069693;28;20433;-67
2022/01/07 06:59:50;;;;;;;4.57;3.37;;;;;;;;;;5086577;28;20885;-69
2022/01/07 07:02:16;;;;;;;3.37;3.17;;;;;;;;;;5082442;28;21762;-68
2022/01/07 07:04:44;;;;;;;3.80;3.50;;;;;;;;;;5084268;28;20432;-70
2022/01/07 07:07:10;;;;;;;5.70;3.53;;;;;;;;;;5084686;28;20432;-70
2022/01/07 07:09:36;;;;;;;4.37;4.07;;;;;;;;;;5079240;28;20493;-67
2022/01/07 07:12:02;;;;;;;3.83;3.53;;;;;;;;;;5080228;28;20436;-68
2022/01/07 07:14:29;;;;;;;4.00;2.70;;;;;;;;;;5080334;28;20492;-68
2022/01/07 07:16:55;;;;;;;4.27;2.50;;;;;;;;;;5053591;28;20429;-68
2022/01/07 07:19:22;;;;;;;2.60;2.40;;;;;;;;;;5082567;28;20456;-69
2022/01/07 07:21:48;;;;;;;4.40;3.20;;;;;;;;;;5087581;28;20519;-69
2022/01/07 07:24:15;;;;;;;2.73;2.53;;;;;;;;;;5083728;28;20947;-69
2022/01/07 07:26:40;;;;;;;3.53;3.43;;;;;;;;;;5087806;28;20632;-71
2022/01/07 07:29:07;;;;;;;4.47;3.73;;;;;;;;;;5086345;28;20533;-71
2022/01/07 07:31:37;;;;;;;3.17;3.00;;;;;;;;;;5083723;28;20439;-71
2022/01/07 07:34:19;;;;;;;3.40;3.03;;;;;;;;;;5085991;28;20491;-70
2022/01/07 07:36:45;;;;;;;2.50;2.40;;;;;;;;;;5088027;28;20776;-68
2022/01/07 07:39:12;;;;;;;3.40;2.70;;;;;;;;;;5083754;28;20511;-71
2022/01/07 07:41:40;;;;;;;4.97;2.90;;;;;;;;;;5085899;28;20428;-67
2022/01/07 07:44:06;;;;;;;5.37;3.37;;;;;;;;;;5080407;28;20437;-72
2022/01/07 07:46:33;;;;;;;2.40;2.40;;;;;;;;;;5070377;28;20440;-68
2022/01/07 07:49:00;;;;;;;2.20;2.10;;;;;;;;;;5085206;28;20487;-68
2022/01/07 07:51:26;;;;;;;2.33;2.23;;;;;;;;;;5068999;28;20946;-72
2022/01/07 07:53:52;;;;;;;2.60;2.40;;;;;;;;;;5085806;28;20480;-72
2022/01/07 07:56:19;;;;;;;2.30;2.20;;;;;;;;;;5083516;28;20439;-73
2022/01/07 07:58:45;;;;;;;4.97;2.17;;;;;;;;;;5077356;28;20453;-71
2022/01/07 08:01:12;;;;;;;2.77;2.57;;;;;;;;;;5079492;28;20436;-67
2022/01/07 08:03:38;;;;;;;2.00;2.00;;;;;;;;;;5086028;28;20845;-71
2022/01/07 08:06:04;;;;;;;2.70;2.50;;;;;;;;;;5088168;28;20431;-68
2022/01/07 08:08:31;;;;;;;2.77;2.67;;;;;;;;;;5077412;28;20522;-69
2022/01/07 08:11:02;;;;;;;3.00;2.90;;;;;;;;;;5085430;28;20420;-68
2022/01/07 08:13:29;;;;;;;2.13;2.03;;;;;;;;;;5086032;28;20888;-68
2022/01/07 08:16:00;;;;;;;2.27;2.17;;;;;;;;;;5086017;28;21005;-67
2022/01/07 08:18:27;;;;;;;2.83;2.40;;;;;;;;;;5082865;28;21021;-71
2022/01/07 08:20:53;;;;;;;4.37;2.70;;;;;;;;;;5083918;28;20490;-70
2022/01/07 08:23:20;;;;;;;2.30;2.27;;;;;;;;;;5050977;28;20954;-69
2022/01/07 08:25:46;;;;;;;2.10;1.70;;;;;;;;;;5085409;28;20433;-67
2022/01/07 08:28:13;;;;;;;2.13;2.13;;;;;;;;;;5060643;28;20451;-68
2022/01/07 08:31:24;;;;;;;2.27;2.20;;;;;;;;;;5086642;28;20413;-69
2022/01/07 08:36:30;;;;;;;3.10;2.23;;;;;;;;;;5083667;28;20451;-72
2022/01/07 08:38:56;;;;;;;4.47;2.07;;;;;;;;;;5085975;28;20433;-68
2022/01/07 08:41:27;;;;;;;2.20;2.10;;;;;;;;;;5068963;28;20860;-71
2022/01/07 08:43:54;;;;;;;4.93;1.80;;;;;;;;;;5084911;28;20527;-67
2022/01/07 08:46:20;;;;;;;1.83;1.73;;;;;;;;;;5086336;28;20859;-68
2022/01/07 08:48:46;;;;;;;2.40;2.20;;;;;;;;;;5084108;28;20441;-67
2022/01/07 08:51:12;;;;;;;1.87;1.70;;;;;;;;;;5089450;28;20988;-67
2022/01/07 08:53:38;;;;;;;3.23;1.63;;;;;;;;;;5088651;28;20490;-67
2022/01/07 08:56:05;;;;;;;2.90;1.83;;;;;;;;;;5090937;28;20507;-67
2022/01/07 08:58:31;;;;;;;1.70;1.60;;;;;;;;;;5088055;28;20523;-68
2022/01/07 09:00:57;;;;;;;2.37;2.20;;;;;;;;;;5083199;28;20449;-68
2022/01/07 09:03:23;;;;;;;2.30;2.20;;;;;;;;;;5066870;28;20810;-67
2022/01/07 09:05:49;;;;;;;1.67;1.57;;;;;;;;;;5089915;28;20462;-69
2022/01/07 09:08:15;;;;;;;1.50;1.50;;;;;;;;;;5089160;28;20420;-69
2022/01/07 09:10:42;;;;;;;2.10;1.70;;;;;;;;;;5092109;28;20435;-69
2022/01/07 09:13:08;;;;;;;1.90;1.43;;;;;;;;;;5080595;28;20519;-69
2022/01/07 09:15:34;;;;;;;1.90;1.80;;;;;;;;;;5088476;28;20539;-69
2022/01/07 09:18:01;;;;;;;2.23;2.13;;;;;;;;;;5087620;28;20433;-72
2022/01/07 09:20:27;;;;;;;7.10;4.77;;;;;;;;;;5070865;28;20457;-67
2022/01/07 09:22:55;;;;;;;111.17;55.70;;;;;;;;;;5087685;28;20947;-66
2022/01/07 09:25:21;;;;;;;60.70;32.47;;;;;;;;;;5091111;28;20789;-68
2022/01/07 09:27:47;;;;;;;64.93;33.10;;;;;;;;;;5086193;28;20940;-66
2022/01/07 09:30:13;;;;;;;8.37;5.90;;;;;;;;;;5089837;28;20524;-66
2022/01/07 09:32:39;;;;;;;3.90;3.63;;;;;;;;;;5086396;28;20475;-66
2022/01/07 09:35:09;;;;;;;9.60;6.87;;;;;;;;;;5090740;28;20932;-66
2022/01/07 09:37:35;;;;;;;14.50;8.03;;;;;;;;;;5089149;28;20431;-65
2022/01/07 09:40:02;;;;;;;58.20;21.27;;;;;;;;;;5067602;28;20932;-67
2022/01/07 09:42:28;;;;;;;19.37;11.17;;;;;;;;;;5088375;28;20416;-66
2022/01/07 09:44:56;;;;;;;9.57;7.10;;;;;;;;;;5088970;28;20471;-69
2022/01/07 09:47:22;;;;;;;6.30;2.10;;;;;;;;;;5088337;28;20771;-67
2022/01/07 09:49:49;;;;;;;3.53;2.20;;;;;;;;;;5089913;28;20492;-66
2022/01/07 09:52:15;;;;;;;3.80;2.23;;;;;;;;;;5084634;28;20912;-71
2022/01/07 09:54:41;;;;;;;4.10;1.30;;;;;;;;;;5088503;28;20484;-70
2022/01/07 09:57:07;;;;;;;2.10;1.47;;;;;;;;;;5089451;28;20466;-69
2022/01/07 09:59:34;;;;;;;2.60;1.60;;;;;;;;;;5087833;28;20464;-67
2022/01/07 10:02:04;;;;;;;1.20;1.10;;;;;;;;;;5087231;28;20428;-66
2022/01/07 10:04:36;;;;;;;1.47;1.37;;;;;;;;;;5090009;28;20489;-66
2022/01/07 10:07:21;;;;;;;12.10;1.97;;;;;;;;;;5088658;28;20491;-66
2022/01/07 10:09:59;;;;;;;2.23;1.53;;;;;;;;;;5089668;28;20467;-66
2022/01/07 10:12:26;;;;;;;1.50;1.50;;;;;;;;;;5068770;28;20429;-70
2022/01/07 10:15:11;;;;;;;2.30;1.53;;;;;;;;;;5084184;28;20928;-67
2022/01/07 10:17:37;;;;;;;1.80;1.70;;;;;;;;;;5080763;28;20440;-67
2022/01/07 10:20:03;;;;;;;1.00;1.00;;;;;;;;;;5082440;28;20442;-70
2022/01/07 10:22:29;;;;;;;1.87;1.70;;;;;;;;;;5078583;28;20429;-69
2022/01/07 10:24:55;;;;;;;1.00;1.00;;;;;;;;;;5083880;28;20488;-67
2022/01/07 10:27:22;;;;;;;10.63;7.47;;;;;;;;;;5079423;28;20436;-66
2022/01/07 10:29:48;;;;;;;4.00;2.77;;;;;;;;;;5068202;28;20423;-66
2022/01/07 10:32:21;;;;;;;4.63;1.37;;;;;;;;;;5063902;28;20433;-67
2022/01/07 10:35:06;;;;;;;3.20;1.80;;;;;;;;;;5088338;28;20436;-65
2022/01/07 10:37:33;;;;;;;1.43;1.30;;;;;;;;;;5086883;28;20968;-65
2022/01/07 10:39:59;;;;;;;1.33;1.33;;;;;;;;;;5080185;28;20516;-65
2022/01/07 10:42:29;;;;;;;2.10;1.10;;;;;;;;;;5086789;28;20523;-65
2022/01/07 10:45:02;;;;;;;33.43;20.20;;;;;;;;;;5087782;28;20474;-64
2022/01/07 10:47:28;;;;;;;2.70;2.50;;;;;;;;;;5088296;28;20427;-67
2022/01/07 10:50:14;;;;;;;3.17;2.07;;;;;;;;;;5070074;28;20452;-66
2022/01/07 10:52:40;;;;;;;2.23;1.17;;;;;;;;;;5086028;28;20476;-66
2022/01/07 10:55:13;;;;;;;3.60;3.30;;;;;;;;;;5087935;28;20523;-65
2022/01/07 10:57:41;;;;;;;2.23;1.20;;;;;;;;;;5087008;28;20440;-65
2022/01/07 11:00:09;;;;;;;4.00;1.70;;;;;;;;;;5087471;28;20427;-65
2022/01/07 11:02:35;;;;;;;1.77;1.67;;;;;;;;;;5067946;28;20639;-66
2022/01/07 11:05:01;;;;;;;2.37;2.20;;;;;;;;;;5086195;28;20428;-65
2022/01/07 11:07:30;;;;;;;1.73;1.40;;;;;;;;;;5082136;28;21902;-66
2022/01/07 11:09:56;;;;;;;4.53;2.03;;;;;;;;;;5066121;28;20470;-65
2022/01/07 11:12:25;;;;;;;2.00;1.90;;;;;;;;;;5087409;28;20681;-67
2022/01/07 11:14:51;;;;;;;3.90;2.53;;;;;;;;;;5088719;28;20494;-67
2022/01/07 11:17:21;;;;;;;1.37;1.37;;;;;;;;;;5085903;28;20489;-66
2022/01/07 11:20:07;;;;;;;6.00;4.37;;;;;;;;;;5101810;22;20513;-67
2022/01/07 11:22:38;;;;;;;17.30;11.80;;;;;;;;;;5028614;28;20784;-67
2022/01/07 11:25:07;;;;;;;8.30;3.70;;;;;;;;;;5023808;28;21016;-66
2022/01/07 11:27:45;;;;;;;3.13;2.03;;;;;;;;;;5025498;28;20482;-66
2022/01/07 11:30:12;;;;;;;8.53;7.10;;;;;;;;;;5025311;28;20435;-66
2022/01/07 11:32:39;;;;;;;5.50;2.30;;;;;;;;;;5027788;28;20447;-65
2022/01/07 11:35:20;;;;;;;3.60;3.40;;;;;;;;;;5026652;28;20574;-66
2022/01/07 11:37:56;;;;;;;2.63;2.50;;;;;;;;;;5027782;28;20442;-66
2022/01/07 11:40:31;;;;;;;4.80;3.23;;;;;;;;;;5025470;28;20510;-64
2022/01/07 11:43:31;;;;;;;11.30;8.77;;;;;;;;;;5027135;28;20461;-65
2022/01/07 11:45:57;;;;;;;14.77;10.87;;;;;;;;;;5026482;28;20427;-65
2022/01/07 11:48:25;;;;;;;28.57;15.80;;;;;;;;;;5027045;28;20431;-65
2022/01/07 11:50:59;;;;;;;9.13;6.93;;;;;;;;;;5026258;28;20416;-65
2022/01/07 11:53:48;;;;;;;8.10;6.43;;;;;;;;;;5025714;28;20491;-65
2022/01/07 11:56:15;;;;;;;5.33;4.83;;;;;;;;;;5018079;28;20423;-65
2022/01/07 11:58:45;;;;;;;16.27;8.10;;;;;;;;;;5028667;28;20419;-65
2022/01/07 12:01:29;;;;;;;10.23;7.30;;;;;;;;;;5027588;28;20424;-64
2022/01/07 12:03:56;;;;;;;6.17;5.53;;;;;;;;;;5026355;28;20514;-65
2022/01/07 12:06:26;;;;;;;6.83;3.63;;;;;;;;;;5023466;28;20435;-64
2022/01/07 12:09:19;;;;;;;2.37;2.17;;;;;;;;;;5027859;28;20443;-65
2022/01/07 12:12:05;;;;;;;3.53;2.80;;;;;;;;;;5028035;28;20454;-65
2022/01/07 12:14:39;;;;;;;5.87;3.10;;;;;;;;;;5028780;28;21047;-66
2022/01/07 12:17:09;;;;;;;3.63;3.37;;;;;;;;;;5032409;28;20450;-65
2022/01/07 12:19:38;;;;;;;5.03;4.57;;;;;;;;;;5030117;28;20849;-65
2022/01/07 12:22:11;;;;;;;10.80;6.03;;;;;;;;;;5030397;28;20928;-65
2022/01/07 12:24:37;;;;;;;5.90;5.00;;;;;;;;;;5029836;28;20431;-65
2022/01/07 12:27:04;;;;;;;5.50;4.10;;;;;;;;;;5031648;28;20427;-65
2022/01/07 12:29:33;;;;;;;6.23;2.70;;;;;;;;;;5030975;28;20471;-66
2022/01/07 12:32:02;;;;;;;10.30;6.97;;;;;;;;;;5031682;28;20426;-65
2022/01/07 12:34:40;;;;;;;5.23;2.47;;;;;;;;;;5030287;28;20570;-65
2022/01/07 12:37:07;;;;;;;8.73;4.43;;;;;;;;;;5031178;28;20518;-64
2022/01/07 12:39:35;;;;;;;7.43;3.67;;;;;;;;;;5030721;28;20438;-66
2022/01/07 12:42:01;;;;;;;4.67;4.37;;;;;;;;;;5031932;28;20431;-65
2022/01/07 12:44:33;;;;;;;3.63;2.23;;;;;;;;;;5030242;28;20968;-65
2022/01/07 12:46:59;;;;;;;4.93;2.13;;;;;;;;;;5030878;28;20439;-65
2022/01/07 12:49:38;;;;;;;2.10;2.00;;;;;;;;;;5028868;28;20501;-65
2022/01/07 12:52:06;;;;;;;2.10;1.90;;;;;;;;;;5028487;28;20419;-64
2022/01/07 12:54:32;;;;;;;2.90;2.40;;;;;;;;;;5028817;28;20482;-65
2022/01/07 12:56:58;;;;;;;2.20;2.00;;;;;;;;;;5030559;28;20510;-65
2022/01/07 12:59:25;;;;;;;3.47;3.20;;;;;;;;;;5030328;28;20438;-67
2022/01/07 13:01:51;;;;;;;10.03;2.37;;;;;;;;;;5031402;28;20423;-70
2022/01/07 13:04:19;;;;;;;2.43;2.43;;;;;;;;;;5028441;28;20423;-66
2022/01/07 13:06:46;;;;;;;5.60;2.27;;;;;;;;;;5030640;28;20851;-69
2022/01/07 13:09:13;;;;;;;3.47;2.07;;;;;;;;;;5028494;28;20420;-66
2022/01/07 13:11:39;;;;;;;3.33;2.33;;;;;;;;;;5030359;28;20526;-67
2022/01/07 13:14:09;;;;;;;6.10;2.00;;;;;;;;;;5029560;28;21056;-66
2022/01/07 13:16:35;;;;;;;3.07;2.87;;;;;;;;;;5030690;28;20950;-66
2022/01/07 13:19:05;;;;;;;13.27;3.10;;;;;;;;;;5029931;28;20528;-66
2022/01/07 13:21:32;;;;;;;2.27;2.17;;;;;;;;;;5030515;28;20435;-66
2022/01/07 13:24:00;;;;;;;3.20;2.90;;;;;;;;;;5029007;28;20450;-66
2022/01/07 13:26:27;;;;;;;2.70;2.47;;;;;;;;;;5030988;28;20432;-66
2022/01/07 13:28:55;;;;;;;4.57;4.13;;;;;;;;;;5030186;28;20431;-67
2022/01/07 13:31:34;;;;;;;4.73;3.20;;;;;;;;;;5029317;28;20432;-66
2022/01/07 13:34:00;;;;;;;5.43;2.60;;;;;;;;;;5029105;28;20664;-66
2022/01/07 13:36:37;;;;;;;2.80;1.90;;;;;;;;;;5029734;28;20435;-66
2022/01/07 13:39:04;;;;;;;2.40;1.40;;;;;;;;;;5027206;28;20431;-66
2022/01/07 13:41:30;;;;;;;1.83;1.73;;;;;;;;;;5029862;28;20447;-66
2022/01/07 13:44:03;;;;;;;3.53;2.20;;;;;;;;;;5029610;28;20430;-66
2022/01/07 13:46:29;;;;;;;2.00;1.90;;;;;;;;;;5030969;28;20431;-66
2022/01/07 13:49:02;;;;;;;2.57;2.37;;;;;;;;;;5028790;28;20429;-66
2022/01/07 13:51:29;;;;;;;4.00;2.23;;;;;;;;;;5030175;28;20813;-67
2022/01/07 13:54:14;;;;;;;2.20;2.10;;;;;;;;;;5029392;28;20483;-66
2022/01/07 13:57:00;;;;;;;12.23;1.90;;;;;;;;;;5031232;28;20466;-66
2022/01/07 13:59:27;;;;;;;1.90;1.80;;;;;;;;;;5029069;28;20577;-66
2022/01/07 14:02:00;;;;;;;2.37;1.87;;;;;;;;;;5030480;28;20432;-66
2022/01/07 14:04:42;;;;;;;2.50;2.03;;;;;;;;;;5042952;28;20437;-66
2022/01/07 14:07:24;;;;;;;4.30;2.47;;;;;;;;;;5029911;28;20939;-66
2022/01/07 14:10:10;;;;;;;1.73;1.67;;;;;;;;;;5029085;28;20441;-66
2022/01/07 14:12:37;;;;;;;1.80;1.70;;;;;;;;;;5026463;28;20432;-66
2022/01/07 14:15:10;;;;;;;5.10;2.33;;;;;;;;;;5026627;28;20535;-66
2022/01/07 14:17:37;;;;;;;3.10;2.90;;;;;;;;;;5025711;28;20501;-65
2022/01/07 14:20:04;;;;;;;7.93;2.37;;;;;;;;;;5028447;28;21001;-66
2022/01/07 14:22:31;;;;;;;1.90;1.90;;;;;;;;;;5021552;28;21750;-66
2022/01/07 14:24:58;;;;;;;2.97;2.67;;;;;;;;;;5023499;28;20466;-66
2022/01/07 14:27:28;;;;;;;1.70;1.60;;;;;;;;;;5041370;28;20451;-66
2022/01/07 14:29:54;;;;;;;1.90;1.80;;;;;;;;;;5028556;28;20522;-66
2022/01/07 14:32:21;;;;;;;1.90;1.90;;;;;;;;;;5022931;28;20466;-66
2022/01/07 14:34:48;;;;;;;1.50;1.50;;;;;;;;;;5027407;28;20483;-66
2022/01/07 14:37:15;;;;;;;2.10;2.00;;;;;;;;;;5025921;28;20580;-66
2022/01/07 14:39:41;;;;;;;4.33;2.03;;;;;;;;;;5028359;28;20522;-67
2022/01/07 14:42:07;;;;;;;2.60;2.00;;;;;;;;;;5025520;28;21299;-66
2022/01/07 14:44:33;;;;;;;2.47;2.20;;;;;;;;;;5028155;28;20451;-66
2022/01/07 14:46:59;;;;;;;1.83;1.83;;;;;;;;;;5026605;28;20510;-66